Welcome to Des Moines Iowa Weather. I am an independent private personal weather station on the Northwest Side of Des Moines, Iowa. Just East of Windsor Heights and just West of Glendale . This site is also mobile friendly.

There are no active watches, warnings or advisories


Visit our other weather sites:

Historical Data

Weather Station Setup



Weather Underground History page Text

Daily Summary for December 4, 2017 Units:  English    Metric   Both
« Previous Day
Next Day »
Daily Weekly Monthly Yearly Custom
  High: Low: Average:
Temperature: 68.6 °F 29.6 °F 55.1 °F
Dew Point: 58.0 °F 20.0 °F 46.6 °F
Humidity: 80 % 51 % 73 %
Wind Speed: 16.0 mph 0.0 mph 3.8 mph
Wind Gust: 23.0 mph - -
Wind:- - SSW
Pressure: 29.87 in 29.34 in -
Precipitation: 0.00 in    
Historical Graphs
 
 
Tabular Data for December 4, 2017
Time Temperature Dew Point Pressure Wind Wind Speed Wind Gust Humidity Rainfall Rate (Hourly)
00:10 59.8 °F 53.0 °F 29.63 in South 1.0 mph 6.0 mph 79 % 0.00 in
00:25 60.3 °F 54.0 °F 29.62 in South 6.0 mph 9.0 mph 80 % 0.00 in
00:41 60.9 °F 54.0 °F 29.61 in South 3.0 mph 8.0 mph 79 % 0.00 in
00:56 61.0 °F 54.0 °F 29.60 in South 2.0 mph 8.0 mph 79 % 0.00 in
01:11 61.1 °F 55.0 °F 29.58 in SSW 1.0 mph 14.0 mph 79 % 0.00 in
01:26 61.3 °F 55.0 °F 29.58 in ESE 2.0 mph 10.0 mph 79 % 0.00 in
01:41 61.3 °F 55.0 °F 29.57 in SE 3.0 mph 12.0 mph 79 % 0.00 in
01:56 61.1 °F 55.0 °F 29.57 in SSW 5.0 mph 12.0 mph 79 % 0.00 in
02:11 61.0 °F 54.0 °F 29.57 in SSE 5.0 mph 9.0 mph 79 % 0.00 in
02:15 61.0 °F 54.0 °F 29.56 in SSE 3.0 mph 10.0 mph 79 % 0.00 in
02:30 61.0 °F 54.0 °F 29.56 in SSE 4.0 mph 9.0 mph 79 % 0.00 in
02:45 60.9 °F 55.0 °F 29.56 in WSW 2.0 mph 14.0 mph 80 % 0.00 in
03:00 60.8 °F 54.0 °F 29.55 in South 1.0 mph 9.0 mph 79 % 0.00 in
03:16 60.8 °F 55.0 °F 29.54 in South 3.0 mph 14.0 mph 80 % 0.00 in
03:30 60.8 °F 55.0 °F 29.53 in SSW 2.0 mph 6.0 mph 80 % 0.00 in
03:46 60.9 °F 55.0 °F 29.52 in South 1.0 mph 8.0 mph 80 % 0.00 in
04:00 61.3 °F 55.0 °F 29.52 in SSW 3.0 mph 12.0 mph 80 % 0.00 in
04:16 61.6 °F 55.0 °F 29.51 in South 2.0 mph 8.0 mph 79 % 0.00 in
04:30 61.8 °F 55.0 °F 29.51 in South 1.0 mph 9.0 mph 79 % 0.00 in
04:46 62.1 °F 56.0 °F 29.50 in South 2.0 mph 8.0 mph 79 % 0.00 in
05:00 62.2 °F 56.0 °F 29.49 in SSE 2.0 mph 10.0 mph 79 % 0.00 in
05:16 62.3 °F 56.0 °F 29.49 in SSE 5.0 mph 11.0 mph 79 % 0.00 in
05:30 62.5 °F 56.0 °F 29.47 in South 4.0 mph 14.0 mph 78 % 0.00 in
05:46 62.3 °F 56.0 °F 29.47 in South 2.0 mph 8.0 mph 79 % 0.00 in
06:01 62.2 °F 56.0 °F 29.46 in SSW 2.0 mph 7.0 mph 79 % 0.00 in
06:16 62.1 °F 56.0 °F 29.45 in SSE 7.0 mph 12.0 mph 79 % 0.00 in
06:31 62.0 °F 56.0 °F 29.46 in SE 3.0 mph 9.0 mph 80 % 0.00 in
06:46 61.8 °F 56.0 °F 29.45 in South 5.0 mph 7.0 mph 80 % 0.00 in
07:01 62.0 °F 56.0 °F 29.45 in SW 2.0 mph 8.0 mph 80 % 0.00 in
07:16 62.2 °F 56.0 °F 29.45 in SSW 2.0 mph 7.0 mph 80 % 0.00 in
07:31 62.5 °F 56.0 °F 29.44 in South 6.0 mph 11.0 mph 80 % 0.00 in
07:46 62.6 °F 56.0 °F 29.44 in South 3.0 mph 6.0 mph 79 % 0.00 in
08:01 62.8 °F 56.0 °F 29.43 in SSW 1.0 mph 10.0 mph 79 % 0.00 in
08:16 62.9 °F 56.0 °F 29.43 in SW 4.0 mph 10.0 mph 79 % 0.00 in
08:31 62.9 °F 56.0 °F 29.42 in WSW 5.0 mph 8.0 mph 79 % 0.00 in
08:46 62.9 °F 56.0 °F 29.42 in SSW 3.0 mph 8.0 mph 79 % 0.00 in
09:01 62.9 °F 56.0 °F 29.42 in South 3.0 mph 8.0 mph 79 % 0.00 in
09:16 62.9 °F 57.0 °F 29.41 in South 2.0 mph 11.0 mph 80 % 0.00 in
09:31 62.9 °F 57.0 °F 29.40 in SSW 2.0 mph 9.0 mph 80 % 0.00 in
09:46 63.2 °F 57.0 °F 29.40 in South 9.0 mph 9.0 mph 79 % 0.00 in
10:01 63.2 °F 57.0 °F 29.40 in South 2.0 mph 7.0 mph 79 % 0.00 in
10:16 63.3 °F 57.0 °F 29.40 in WSW 2.0 mph 8.0 mph 79 % 0.00 in
10:31 63.5 °F 57.0 °F 29.40 in SSW 1.0 mph 6.0 mph 79 % 0.00 in
10:46 63.8 °F 57.0 °F 29.39 in SSE 2.0 mph 4.0 mph 79 % 0.00 in
11:01 64.9 °F 58.0 °F 29.38 in South 4.0 mph 11.0 mph 77 % 0.00 in
11:16 65.9 °F 57.0 °F 29.37 in North 2.0 mph 13.0 mph 74 % 0.00 in
11:25 66.1 °F 57.0 °F 29.36 in SW 4.0 mph 13.0 mph 73 % 0.00 in
11:40 66.7 °F 57.0 °F 29.36 in WSW 2.0 mph 10.0 mph 72 % 0.00 in
11:48 67.2 °F 57.0 °F 29.36 in North 3.0 mph 10.0 mph 70 % 0.00 in
12:03 67.6 °F 57.0 °F 29.35 in WSW 2.0 mph 9.0 mph 69 % 0.00 in
12:18 67.6 °F 57.0 °F 29.35 in NNE 1.0 mph 10.0 mph 69 % 0.00 in
12:33 67.3 °F 57.0 °F 29.35 in South 2.0 mph 12.0 mph 69 % 0.00 in
12:48 67.0 °F 56.0 °F 29.34 in SSW 3.0 mph 10.0 mph 69 % 0.00 in
13:03 67.0 °F 56.0 °F 29.34 in Calm   11.0 mph 67 % 0.00 in
13:11 67.0 °F 56.0 °F 29.34 in West 1.0 mph 7.0 mph 67 % 0.00 in
13:26 66.9 °F 55.0 °F 29.34 in South 3.0 mph 9.0 mph 65 % 0.00 in
13:41 68.3 °F 54.0 °F 29.34 in WSW 1.0 mph 14.0 mph 61 % 0.00 in
13:56 68.6 °F 52.0 °F 29.34 in WSW 3.0 mph 15.0 mph 56 % 0.00 in
14:11 67.4 °F 51.0 °F 29.36 in NW 3.0 mph 8.0 mph 56 % 0.00 in
14:26 64.9 °F 46.0 °F 29.37 in West 1.0 mph 10.0 mph 51 % 0.00 in
14:41 60.9 °F 48.0 °F 29.40 in West 4.0 mph 10.0 mph 62 % 0.00 in
14:46 59.5 °F 47.0 °F 29.41 in NNW 8.0 mph 16.0 mph 63 % 0.00 in
15:01 55.8 °F 44.0 °F 29.44 in North 4.0 mph 16.0 mph 66 % 0.00 in
15:16 52.3 °F 42.0 °F 29.46 in North 5.0 mph 14.0 mph 69 % 0.00 in
15:31 49.4 °F 41.0 °F 29.47 in North 2.0 mph 16.0 mph 74 % 0.00 in
15:46 48.3 °F 41.0 °F 29.48 in North 2.0 mph 10.0 mph 77 % 0.00 in
16:02 47.3 °F 40.0 °F 29.49 in North 4.0 mph 13.0 mph 77 % 0.00 in
16:17 46.8 °F 39.0 °F 29.49 in North 1.0 mph 8.0 mph 74 % 0.00 in
16:32 46.4 °F 38.0 °F 29.49 in North 2.0 mph 6.0 mph 72 % 0.00 in
16:47 46.3 °F 35.0 °F 29.51 in WNW 5.0 mph 20.0 mph 66 % 0.00 in
17:02 45.7 °F 35.0 °F 29.53 in West 3.0 mph 11.0 mph 66 % 0.00 in
17:17 45.2 °F 34.0 °F 29.53 in WNW 4.0 mph 11.0 mph 66 % 0.00 in
17:32 44.7 °F 34.0 °F 29.54 in WNW 9.0 mph 14.0 mph 67 % 0.00 in
18:02 43.3 °F 33.0 °F 29.56 in West 7.0 mph 14.0 mph 67 % 0.00 in
18:17 42.8 °F 33.0 °F 29.57 in West 3.0 mph 14.0 mph 68 % 0.00 in
18:32 42.6 °F 33.0 °F 29.58 in NW 3.0 mph 16.0 mph 69 % 0.00 in
18:47 42.3 °F 32.0 °F 29.60 in NW 4.0 mph 10.0 mph 68 % 0.00 in
19:02 41.1 °F 30.0 °F 29.62 in North 5.0 mph 17.0 mph 66 % 0.00 in
19:17 39.8 °F 30.0 °F 29.64 in NNE 8.0 mph 17.0 mph 68 % 0.00 in
19:32 39.4 °F 30.0 °F 29.64 in West 4.0 mph 13.0 mph 68 % 0.00 in
19:47 38.9 °F 29.0 °F 29.66 in WNW 7.0 mph 23.0 mph 69 % 0.00 in
20:02 38.6 °F 29.0 °F 29.67 in West 7.0 mph 20.0 mph 69 % 0.00 in
20:17 38.4 °F 29.0 °F 29.68 in WNW 9.0 mph 18.0 mph 68 % 0.00 in
20:32 37.8 °F 28.0 °F 29.70 in WNW 4.0 mph 19.0 mph 68 % 0.00 in
20:47 37.0 °F 27.0 °F 29.72 in West 4.0 mph 22.0 mph 68 % 0.00 in
21:02 36.3 °F 26.0 °F 29.74 in NW 11.0 mph 20.0 mph 67 % 0.00 in
21:18 36.0 °F 26.0 °F 29.75 in WNW 8.0 mph 22.0 mph 68 % 0.00 in
21:33 35.4 °F 25.0 °F 29.77 in NNW 10.0 mph 23.0 mph 67 % 0.00 in
21:48 34.1 °F 25.0 °F 29.80 in WNW 5.0 mph 23.0 mph 68 % 0.00 in
22:03 33.3 °F 24.0 °F 29.80 in North 4.0 mph 17.0 mph 70 % 0.00 in
22:33 31.6 °F 24.0 °F 29.83 in WNW 4.0 mph 21.0 mph 72 % 0.00 in
22:48 31.4 °F 24.0 °F 29.84 in NNW 8.0 mph 20.0 mph 73 % 0.00 in
23:03 31.3 °F 24.0 °F 29.85 in WNW 16.0 mph 17.0 mph 73 % 0.00 in
23:18 30.9 °F 23.0 °F 29.86 in West 3.0 mph 22.0 mph 72 % 0.00 in
23:31 30.2 °F 22.0 °F 29.87 in WNW 4.0 mph 19.0 mph 70 % 0.00 in
23:46 29.6 °F 20.0 °F 29.87 in NW 9.0 mph 18.0 mph 68 % 0.00 in
Des Moines Weather and Climate
Compliments of Weather Underground - 3 mb

Script developed by  Jim McMurry - jmcmurry@mwt.net Adapted for the template by  Wim van der Kuil - Leuven-Template.eu

You find our weather info also at:

Weather Underground

Equipment we use:

Weather-station
Davis VP2 Plus

Weather-program
Davis Weatherlink.Com

Weather-server
iMac (Retina 4K, 21.5-inch, Late 2015)

Provider
Hostmonster.com

Davis VP2 Plus

Davis Weatherlink.Com

iMac (Retina 4K, 21.5-inch, Late 2015)

Hostmonster.com